createdAt,value
2023-04-03T00:01:25.642Z,85.18
2023-04-03T00:03:54.124Z,85.38
2023-04-03T00:06:21.437Z,85.33
2023-04-03T00:08:50.738Z,85.52
2023-04-03T00:11:19.462Z,85.35
2023-04-03T00:13:47.002Z,85.20
2023-04-03T00:16:14.485Z,85.28
2023-04-03T00:18:41.938Z,85.35
2023-04-03T00:21:14.339Z,84.82
2023-04-03T00:23:41.800Z,84.31
2023-04-03T00:26:09.266Z,84.40
2023-04-03T00:28:38.807Z,84.32
2023-04-03T00:31:07.295Z,84.30
2023-04-03T00:33:34.659Z,84.34
2023-04-03T00:36:08.025Z,84.43
2023-04-03T00:38:42.201Z,84.51
2023-04-03T00:41:10.774Z,84.86
2023-04-03T00:43:37.978Z,85.06
2023-04-03T00:46:06.463Z,84.63
2023-04-03T00:48:41.016Z,85.06
2023-04-03T00:51:12.690Z,85.01
2023-04-03T00:53:48.962Z,84.96
2023-04-03T00:56:21.017Z,84.76
2023-04-03T00:59:14.851Z,85.30
2023-04-03T01:01:43.197Z,85.00
2023-04-03T01:04:37.475Z,84.62
2023-04-03T01:07:09.491Z,84.06
2023-04-03T01:09:40.082Z,84.24
2023-04-03T01:12:19.086Z,84.89
2023-04-03T01:14:49.796Z,85.11
2023-04-03T01:17:42.437Z,85.80
2023-04-03T01:20:12.535Z,85.61
2023-04-03T01:22:55.170Z,85.51
2023-04-03T01:25:25.740Z,85.47
2023-04-03T01:27:55.001Z,85.69
2023-04-03T01:30:29.332Z,85.40
2023-04-03T01:32:56.454Z,84.93
2023-04-03T01:35:24.255Z,85.25
2023-04-03T01:37:58.091Z,85.69
2023-04-03T01:40:26.809Z,85.87
2023-04-03T01:42:53.983Z,86.04
2023-04-03T01:45:27.617Z,86.07
2023-04-03T01:47:55.462Z,86.21
2023-04-03T01:50:23.051Z,86.38
2023-04-03T01:52:50.496Z,86.31
2023-04-03T01:55:20.040Z,86.39
2023-04-03T01:57:48.594Z,86.92
2023-04-03T02:00:16.273Z,87.09
2023-04-03T02:02:43.483Z,86.80
2023-04-03T02:05:11.037Z,86.89
2023-04-03T02:07:38.306Z,87.11
2023-04-03T02:10:06.119Z,87.36
2023-04-03T02:12:33.774Z,87.11
2023-04-03T02:15:02.262Z,87.15
2023-04-03T02:17:37.062Z,87.30
2023-04-03T02:20:05.076Z,87.96
2023-04-03T02:22:32.986Z,88.10
2023-04-03T02:25:01.903Z,88.22
2023-04-03T02:27:29.416Z,88.31
2023-04-03T02:29:56.897Z,87.99
2023-04-03T02:32:24.378Z,88.15
2023-04-03T02:34:51.766Z,88.18
2023-04-03T02:37:19.308Z,87.61
2023-04-03T02:39:46.764Z,87.49
2023-04-03T02:42:15.824Z,87.10
2023-04-03T02:44:43.414Z,87.14
2023-04-03T02:47:10.931Z,87.59
2023-04-03T02:49:38.173Z,87.57
2023-04-03T02:52:05.802Z,87.82
2023-04-03T02:54:33.999Z,87.23
2023-04-03T02:57:01.088Z,86.91
2023-04-03T02:59:28.610Z,87.14
2023-04-03T03:01:57.023Z,87.40
2023-04-03T03:04:24.392Z,87.59
2023-04-03T03:06:52.207Z,87.75
2023-04-03T03:09:21.792Z,87.88
2023-04-03T03:11:49.327Z,87.62
2023-04-03T03:14:16.833Z,87.24
2023-04-03T03:16:44.232Z,87.87
2023-04-03T03:19:11.861Z,88.50
2023-04-03T03:21:39.189Z,88.74
2023-04-03T03:24:06.946Z,88.28
2023-04-03T03:26:34.347Z,88.44
2023-04-03T03:29:01.553Z,88.51
2023-04-03T03:31:29.153Z,87.78
2023-04-03T03:33:57.730Z,88.11
2023-04-03T03:36:26.147Z,87.94
2023-04-03T03:38:53.656Z,88.73
2023-04-03T03:41:21.068Z,89.27
2023-04-03T03:43:48.496Z,89.82
2023-04-03T03:46:15.932Z,90.43
2023-04-03T03:48:44.524Z,90.65
2023-04-03T03:51:12.868Z,90.58
2023-04-03T03:53:41.492Z,90.95
2023-04-03T03:56:08.870Z,91.24
2023-04-03T03:58:36.354Z,91.36
2023-04-03T04:01:07.023Z,91.09
2023-04-03T04:03:34.694Z,90.76
2023-04-03T04:06:02.582Z,90.83
2023-04-03T04:08:30.279Z,90.60
2023-04-03T04:11:03.780Z,91.01
2023-04-03T04:13:33.334Z,90.60
2023-04-03T04:16:01.202Z,90.62
2023-04-03T04:18:28.789Z,90.99
2023-04-03T04:20:57.290Z,90.89
2023-04-03T04:23:24.766Z,91.18
2023-04-03T04:25:53.374Z,91.46
2023-04-03T04:28:21.680Z,91.57
2023-04-03T04:30:50.273Z,91.71
2023-04-03T04:33:18.782Z,91.87
2023-04-03T04:35:49.422Z,91.96
2023-04-03T04:38:17.691Z,92.38
2023-04-03T04:40:48.995Z,92.64
2023-04-03T04:43:16.735Z,92.97
2023-04-03T04:45:45.167Z,93.21
2023-04-03T04:48:19.183Z,93.58
2023-04-03T04:50:47.751Z,93.97
2023-04-03T04:53:15.246Z,94.12
2023-04-03T04:55:42.750Z,94.42
2023-04-03T04:58:10.200Z,94.27
2023-04-03T05:00:38.806Z,94.41
2023-04-03T05:03:06.129Z,94.84
2023-04-03T05:05:33.749Z,94.62
2023-04-03T05:08:00.920Z,94.37
2023-04-03T05:10:28.354Z,94.46
2023-04-03T05:12:56.061Z,94.89
2023-04-03T05:15:23.309Z,94.79
2023-04-03T05:17:51.756Z,94.75
2023-04-03T05:20:19.483Z,94.90
2023-04-03T05:22:46.911Z,95.26
2023-04-03T05:25:14.346Z,94.92
2023-04-03T05:27:41.567Z,95.03
2023-04-03T05:30:14.627Z,95.29
2023-04-03T05:32:42.585Z,95.08
2023-04-03T05:35:11.413Z,95.09
2023-04-03T05:37:51.402Z,94.89
2023-04-03T05:40:20.199Z,95.20
2023-04-03T05:42:49.448Z,95.61
2023-04-03T05:45:19.040Z,95.52
2023-04-03T05:47:46.427Z,95.28
2023-04-03T05:50:15.565Z,95.47
2023-04-03T05:52:49.821Z,95.30
2023-04-03T05:55:16.975Z,95.31
2023-04-03T05:57:44.412Z,94.57
2023-04-03T06:00:16.808Z,94.25
2023-04-03T06:02:44.292Z,94.05
2023-04-03T06:05:13.494Z,93.98
2023-04-03T06:07:41.178Z,94.11
2023-04-03T06:10:10.262Z,93.59
2023-04-03T06:12:37.796Z,92.30
2023-04-03T06:15:06.087Z,91.53
2023-04-03T06:17:35.404Z,91.53
2023-04-03T06:20:09.267Z,90.58
2023-04-03T06:22:38.185Z,91.33
2023-04-03T06:25:06.548Z,90.99
2023-04-03T06:27:36.074Z,90.19
2023-04-03T06:30:06.920Z,89.37
2023-04-03T06:32:34.683Z,89.42
2023-04-03T06:35:03.599Z,87.35
2023-04-03T06:37:32.536Z,85.88
2023-04-03T06:40:01.687Z,84.40
2023-04-03T06:42:35.018Z,83.91
2023-04-03T06:45:03.312Z,83.83
2023-04-03T06:47:31.274Z,83.98
2023-04-03T06:49:58.957Z,83.01
2023-04-03T06:52:32.643Z,82.72
2023-04-03T06:55:00.885Z,82.21
2023-04-03T06:57:28.051Z,82.44
2023-04-03T06:59:55.324Z,82.54
2023-04-03T07:02:24.297Z,81.33
2023-04-03T07:04:51.951Z,80.30
2023-04-03T07:07:20.639Z,79.07
2023-04-03T07:09:49.249Z,78.42
2023-04-03T07:12:17.992Z,78.61
2023-04-03T07:14:45.265Z,79.43
2023-04-03T07:17:13.739Z,78.81
2023-04-03T07:19:41.425Z,78.57
2023-04-03T07:22:12.333Z,77.62
2023-04-03T07:24:41.173Z,76.99
2023-04-03T07:27:09.832Z,75.62
2023-04-03T07:29:37.275Z,74.03
2023-04-03T07:32:05.008Z,73.62
2023-04-03T07:34:33.873Z,74.22
2023-04-03T07:37:03.882Z,73.78
2023-04-03T07:39:31.247Z,74.46
2023-04-03T07:41:58.336Z,74.17
2023-04-03T07:44:26.128Z,71.89
2023-04-03T07:46:53.629Z,71.72
2023-04-03T07:49:27.376Z,72.22
2023-04-03T07:51:55.762Z,70.65
2023-04-03T07:54:22.959Z,69.51
2023-04-03T07:56:50.693Z,69.09
2023-04-03T07:59:17.871Z,70.20
2023-04-03T08:01:45.479Z,67.83
2023-04-03T08:04:13.042Z,68.56
2023-04-03T08:06:46.399Z,68.24
2023-04-03T08:09:16.714Z,67.03
2023-04-03T08:11:44.313Z,67.85
2023-04-03T08:14:17.467Z,67.33
2023-04-03T08:16:46.900Z,63.99
2023-04-03T08:19:25.311Z,66.25
2023-04-03T08:22:02.093Z,63.78
2023-04-03T08:24:29.443Z,64.94
2023-04-03T08:26:56.831Z,63.89
2023-04-03T08:29:25.031Z,61.57
2023-04-03T08:31:52.348Z,62.13
2023-04-03T08:34:20.602Z,62.62
2023-04-03T08:36:48.565Z,62.02
2023-04-03T08:39:15.743Z,60.70
2023-04-03T08:41:50.538Z,60.05
2023-04-03T08:44:33.381Z,60.09
2023-04-03T08:47:26.432Z,59.82
2023-04-03T08:50:00.780Z,60.82
2023-04-03T08:52:39.425Z,60.66
2023-04-03T08:55:17.232Z,59.52
2023-04-03T08:57:46.961Z,59.23
2023-04-03T09:00:22.544Z,58.31
2023-04-03T09:02:57.874Z,58.21
2023-04-03T09:05:44.487Z,55.33
2023-04-03T09:08:27.284Z,56.43
2023-04-03T09:11:19.390Z,57.78
2023-04-03T09:14:04.544Z,54.83
2023-04-03T09:16:41.161Z,52.54
2023-04-03T09:19:30.064Z,53.59
2023-04-03T09:22:21.474Z,53.47
2023-04-03T09:24:57.901Z,52.79
2023-04-03T09:27:26.205Z,52.55
2023-04-03T09:29:58.108Z,53.39
2023-04-03T09:32:32.607Z,53.79
2023-04-03T09:35:20.728Z,52.14
2023-04-03T09:38:11.688Z,52.14
2023-04-03T09:40:41.724Z,52.19
2023-04-03T09:43:30.064Z,54.07
2023-04-03T09:46:19.418Z,52.66
2023-04-03T09:49:07.440Z,50.25
2023-04-03T09:51:36.507Z,50.99
2023-04-03T09:54:38.835Z,49.24
2023-04-03T09:57:11.443Z,50.44
2023-04-03T09:59:45.037Z,51.60
2023-04-03T10:02:34.053Z,49.79
2023-04-03T10:07:38.413Z,48.73
2023-04-03T10:10:19.179Z,49.97
2023-04-03T10:12:47.021Z,48.08
2023-04-03T10:15:22.078Z,48.99
2023-04-03T10:18:08.765Z,49.45
2023-04-03T10:20:50.879Z,49.79
2023-04-03T10:23:24.530Z,50.55
2023-04-03T10:26:01.768Z,50.23
2023-04-03T10:28:54.879Z,49.52
2023-04-03T10:31:24.989Z,49.31
2023-04-03T10:34:06.332Z,48.99
2023-04-03T10:36:53.724Z,49.26
2023-04-03T10:39:38.674Z,50.01
2023-04-03T10:42:36.441Z,48.62
2023-04-03T10:45:23.528Z,47.69
2023-04-03T10:48:15.228Z,49.04
2023-04-03T10:51:07.601Z,50.18
2023-04-03T10:53:53.601Z,50.50
2023-04-03T10:56:46.319Z,50.04
2023-04-03T10:59:37.121Z,48.76
2023-04-03T11:02:49.535Z,49.23
2023-04-03T11:05:26.665Z,49.77
2023-04-03T11:07:58.707Z,49.75
2023-04-03T11:10:39.037Z,50.87
2023-04-03T11:13:44.979Z,51.84
2023-04-03T11:16:21.101Z,50.08
2023-04-03T11:18:58.729Z,50.11
2023-04-03T11:21:58.530Z,50.86
2023-04-03T11:24:31.450Z,47.26
2023-04-03T11:27:05.031Z,46.23
2023-04-03T11:29:37.836Z,45.96
2023-04-03T11:32:33.373Z,45.57
2023-04-03T11:35:09.980Z,46.33
2023-04-03T11:37:41.955Z,45.58
2023-04-03T11:40:32.138Z,47.44
2023-04-03T11:43:19.813Z,44.92
2023-04-03T11:45:58.309Z,45.00
2023-04-03T11:48:29.658Z,44.59
2023-04-03T11:50:59.497Z,43.35
2023-04-03T11:53:40.394Z,42.06
2023-04-03T11:56:28.653Z,40.78
2023-04-03T11:59:13.893Z,43.60
2023-04-03T12:01:47.383Z,43.74
2023-04-03T12:04:18.936Z,44.53
2023-04-03T12:06:46.645Z,45.12
2023-04-03T12:09:31.761Z,47.16
2023-04-03T12:12:01.826Z,47.93
2023-04-03T12:14:30.325Z,48.08
2023-04-03T12:16:59.234Z,45.65
2023-04-03T12:22:10.596Z,45.34
2023-04-03T12:24:43.950Z,43.83
2023-04-03T12:27:39.866Z,41.45
2023-04-03T12:30:16.597Z,39.91
2023-04-03T12:32:52.127Z,40.04
2023-04-03T12:35:33.762Z,43.70
2023-04-03T12:38:26.554Z,43.28
2023-04-03T12:40:56.848Z,42.82
2023-04-03T12:43:30.654Z,44.35
2023-04-03T12:46:13.825Z,42.58
2023-04-03T12:49:00.962Z,41.32
2023-04-03T12:51:45.957Z,40.03
2023-04-03T12:54:47.006Z,40.62
2023-04-03T12:57:28.932Z,39.81
2023-04-03T12:59:57.712Z,39.55
2023-04-03T13:02:31.208Z,39.12
2023-04-03T13:05:11.266Z,38.22
2023-04-03T13:07:42.062Z,37.03
2023-04-03T13:10:09.395Z,38.90
2023-04-03T13:12:54.116Z,39.94
2023-04-03T13:15:41.653Z,41.71
2023-04-03T13:18:31.255Z,41.89
2023-04-03T13:21:09.312Z,40.72
2023-04-03T13:23:40.041Z,38.36
2023-04-03T13:26:08.354Z,37.75
2023-04-03T13:28:37.244Z,39.31
2023-04-03T13:31:20.253Z,38.60
2023-04-03T13:34:00.189Z,39.11
2023-04-03T13:36:32.965Z,38.66
2023-04-03T13:39:14.636Z,37.53
2023-04-03T13:42:00.162Z,39.80
2023-04-03T13:44:36.985Z,39.93
2023-04-03T13:47:13.328Z,40.63
2023-04-03T13:49:43.811Z,41.13
2023-04-03T13:52:30.430Z,38.25
2023-04-03T13:55:05.769Z,39.75
2023-04-03T13:57:35.664Z,37.86
2023-04-03T14:00:22.234Z,39.71
2023-04-03T14:02:49.991Z,40.35
2023-04-03T14:05:19.510Z,42.33
2023-04-03T14:07:47.228Z,41.66
2023-04-03T14:10:15.905Z,39.41
2023-04-03T14:12:43.404Z,38.47
2023-04-03T14:15:26.171Z,38.18
2023-04-03T14:17:54.721Z,39.24
2023-04-03T14:20:25.873Z,39.80
2023-04-03T14:22:55.235Z,40.10
2023-04-03T14:25:25.156Z,41.72
2023-04-03T14:27:59.018Z,40.43
2023-04-03T14:30:30.348Z,40.48
2023-04-03T14:32:58.356Z,40.27
2023-04-03T14:35:28.285Z,39.98
2023-04-03T14:37:56.599Z,41.86
2023-04-03T14:40:27.504Z,40.36
2023-04-03T14:42:56.665Z,40.23
2023-04-03T14:45:24.482Z,39.59
2023-04-03T14:48:00.724Z,40.86
2023-04-03T14:50:30.538Z,39.80
2023-04-03T14:53:00.133Z,39.92
2023-04-03T14:55:33.560Z,39.56
2023-04-03T14:58:01.328Z,40.48
2023-04-03T15:00:28.507Z,41.78
2023-04-03T15:02:55.802Z,42.08
2023-04-03T15:05:23.653Z,40.37
2023-04-03T15:08:01.754Z,40.81
2023-04-03T15:10:32.038Z,40.57
2023-04-03T15:13:01.292Z,41.68
2023-04-03T15:15:31.350Z,42.33
2023-04-03T15:18:06.223Z,43.24
2023-04-03T15:20:34.920Z,44.75
2023-04-03T15:23:03.395Z,44.52
2023-04-03T15:25:33.881Z,44.75
2023-04-03T15:28:01.596Z,44.52
2023-04-03T15:30:29.895Z,43.45
2023-04-03T15:32:57.402Z,43.76
2023-04-03T15:35:25.904Z,43.67
2023-04-03T15:38:00.570Z,43.77
2023-04-03T15:40:28.046Z,43.44
2023-04-03T15:42:56.522Z,44.83
2023-04-03T15:45:31.939Z,44.17
2023-04-03T15:47:59.521Z,44.73
2023-04-03T15:50:26.983Z,46.02
2023-04-03T15:52:59.081Z,46.85
2023-04-03T15:55:27.668Z,46.00
2023-04-03T15:57:57.876Z,46.40
2023-04-03T16:00:27.901Z,46.87
2023-04-03T16:03:02.847Z,47.63
2023-04-03T16:05:30.177Z,46.26
2023-04-03T16:07:59.293Z,47.66
2023-04-03T16:10:26.725Z,47.73
2023-04-03T16:12:53.970Z,46.79
2023-04-03T16:15:21.431Z,47.26
2023-04-03T16:17:49.488Z,46.28
2023-04-03T16:20:19.918Z,46.59
2023-04-03T16:22:47.442Z,47.80
2023-04-03T16:25:14.889Z,47.14
2023-04-03T16:27:42.331Z,48.04
2023-04-03T16:30:11.867Z,48.79
2023-04-03T16:32:42.051Z,48.75
2023-04-03T16:35:12.028Z,48.34
2023-04-03T16:37:42.061Z,48.44
2023-04-03T16:40:10.274Z,49.36
2023-04-03T16:42:38.839Z,49.16
2023-04-03T16:45:09.009Z,49.19
2023-04-03T16:47:36.387Z,49.01
2023-04-03T16:50:04.334Z,50.08
2023-04-03T16:52:31.697Z,50.88
2023-04-03T16:55:00.159Z,50.39
2023-04-03T16:57:27.898Z,50.96
2023-04-03T16:59:55.994Z,51.46
2023-04-03T17:02:27.534Z,51.93
2023-04-03T17:04:55.602Z,52.45
2023-04-03T17:07:24.835Z,52.38
2023-04-03T17:09:54.911Z,51.49
2023-04-03T17:12:23.031Z,51.08
2023-04-03T17:14:50.835Z,51.14
2023-04-03T17:17:23.665Z,51.10
2023-04-03T17:19:52.805Z,50.48
2023-04-03T17:22:20.194Z,50.80
2023-04-03T17:24:47.780Z,50.72
2023-04-03T17:27:16.557Z,51.16
2023-04-03T17:29:45.072Z,51.27
2023-04-03T17:32:13.645Z,51.83
2023-04-03T17:34:43.108Z,51.70
2023-04-03T17:37:12.099Z,51.82
2023-04-03T17:39:40.957Z,51.65
2023-04-03T17:42:08.951Z,52.21
2023-04-03T17:44:38.536Z,52.71
2023-04-03T17:47:08.120Z,52.62
2023-04-03T17:49:36.147Z,52.50
2023-04-03T17:52:03.648Z,52.94
2023-04-03T17:54:31.018Z,51.28
2023-04-03T17:56:58.419Z,50.00
2023-04-03T17:59:29.757Z,49.69
2023-04-03T18:01:58.771Z,49.52
2023-04-03T18:04:27.047Z,50.09
2023-04-03T18:06:56.628Z,49.48
2023-04-03T18:09:31.916Z,50.58
2023-04-03T18:12:02.616Z,50.77
2023-04-03T18:14:30.913Z,50.63
2023-04-03T18:16:59.543Z,51.43
2023-04-03T18:19:29.743Z,51.67
2023-04-03T18:22:04.435Z,51.88
2023-04-03T18:24:40.190Z,52.93
2023-04-03T18:27:13.775Z,52.34
2023-04-03T18:29:44.476Z,53.38
2023-04-03T18:32:17.204Z,52.86
2023-04-03T18:34:47.396Z,52.94
2023-04-03T18:37:17.319Z,53.55
2023-04-03T18:39:45.791Z,54.51
2023-04-03T18:42:19.262Z,55.06
2023-04-03T18:44:49.081Z,55.02
2023-04-03T18:47:18.671Z,54.94
2023-04-03T18:49:46.357Z,55.03
2023-04-03T18:52:14.609Z,54.72
2023-04-03T18:54:44.016Z,55.24
2023-04-03T18:57:12.562Z,55.39
2023-04-03T18:59:40.247Z,55.58
2023-04-03T19:02:09.912Z,55.64
2023-04-03T19:04:38.141Z,56.02
2023-04-03T19:07:10.262Z,56.30
2023-04-03T19:09:39.347Z,55.89
2023-04-03T19:12:09.077Z,56.24
2023-04-03T19:14:37.310Z,56.68
2023-04-03T19:17:08.822Z,56.54
2023-04-03T19:19:37.565Z,56.78
2023-04-03T19:22:08.358Z,56.86
2023-04-03T19:24:37.046Z,56.84
2023-04-03T19:27:05.137Z,57.06
2023-04-03T19:29:34.174Z,57.27
2023-04-03T19:32:06.588Z,57.25
2023-04-03T19:34:34.900Z,57.43
2023-04-03T19:37:03.197Z,57.67
2023-04-03T19:39:39.547Z,57.82
2023-04-03T19:42:09.377Z,58.22
2023-04-03T19:44:38.138Z,58.54
2023-04-03T19:47:06.903Z,58.98
2023-04-03T19:49:36.867Z,59.33
2023-04-03T19:52:07.575Z,59.82
2023-04-03T19:54:36.033Z,60.09
2023-04-03T19:57:04.553Z,60.25
2023-04-03T19:59:32.884Z,60.21
2023-04-03T20:02:01.178Z,60.56
2023-04-03T20:04:29.406Z,60.55
2023-04-03T20:06:58.552Z,60.55
2023-04-03T20:09:27.804Z,60.88
2023-04-03T20:11:56.832Z,60.83
2023-04-03T20:14:24.743Z,60.71
2023-04-03T20:16:52.410Z,61.15
2023-04-03T20:19:20.607Z,61.39
2023-04-03T20:21:50.915Z,61.13
2023-04-03T20:24:18.583Z,61.22
2023-04-03T20:26:47.871Z,61.01
2023-04-03T20:29:16.951Z,61.29
2023-04-03T20:31:44.608Z,61.70
2023-04-03T20:34:14.360Z,61.72
2023-04-03T20:36:43.329Z,61.89
2023-04-03T20:39:11.357Z,62.15
2023-04-03T20:41:39.745Z,62.56
2023-04-03T20:44:07.455Z,62.70
2023-04-03T20:46:51.426Z,62.73
2023-04-03T20:49:21.497Z,63.20
2023-04-03T20:51:51.435Z,63.56
2023-04-03T20:54:19.830Z,64.11
2023-04-03T20:56:50.257Z,64.40
2023-04-03T20:59:18.761Z,64.60
2023-04-03T21:01:53.645Z,64.54
2023-04-03T21:04:30.825Z,64.81
2023-04-03T21:07:39.223Z,64.93
2023-04-03T21:10:44.059Z,64.82
2023-04-03T21:13:48.966Z,64.82
2023-04-03T21:16:16.907Z,64.79
2023-04-03T21:19:03.431Z,64.16
2023-04-03T21:21:31.558Z,63.17
2023-04-03T21:24:07.334Z,63.50
2023-04-03T21:26:34.797Z,63.22
2023-04-03T21:29:03.384Z,62.90
2023-04-03T21:31:59.464Z,62.73
2023-04-03T21:34:30.968Z,63.06
2023-04-03T21:37:03.209Z,63.37
2023-04-03T21:39:31.624Z,64.00
2023-04-03T21:42:00.452Z,64.15
2023-04-03T21:44:30.641Z,64.69
2023-04-03T21:46:58.913Z,64.79
2023-04-03T21:49:38.935Z,64.88
2023-04-03T21:52:07.000Z,65.13
2023-04-03T21:54:34.461Z,65.45
2023-04-03T21:57:01.946Z,64.81
2023-04-03T21:59:29.562Z,64.90
2023-04-03T22:01:56.881Z,65.27
2023-04-03T22:04:24.898Z,65.67
2023-04-03T22:06:53.706Z,66.02
2023-04-03T22:09:23.030Z,66.23
2023-04-03T22:11:52.610Z,66.74
2023-04-03T22:14:22.123Z,66.90
2023-04-03T22:16:49.407Z,67.27
2023-04-03T22:19:16.804Z,67.96
2023-04-03T22:21:44.352Z,68.42
2023-04-03T22:24:13.848Z,68.75
2023-04-03T22:26:44.684Z,68.99
2023-04-03T22:29:13.603Z,68.89
2023-04-03T22:31:48.085Z,68.94
2023-04-03T22:34:16.936Z,69.01
2023-04-03T22:36:46.787Z,69.42
2023-04-03T22:39:22.566Z,69.71
2023-04-03T22:41:50.736Z,69.49
2023-04-03T22:44:19.044Z,69.24
2023-04-03T22:46:46.734Z,69.31
2023-04-03T22:49:14.032Z,69.46
2023-04-03T22:51:41.710Z,69.25
2023-04-03T22:54:09.924Z,69.02
2023-04-03T22:56:37.506Z,69.00
2023-04-03T22:59:04.900Z,69.35
2023-04-03T23:01:32.655Z,69.85
2023-04-03T23:04:00.336Z,69.85
2023-04-03T23:06:28.490Z,69.77
2023-04-03T23:08:57.858Z,69.41
2023-04-03T23:11:25.270Z,69.32
2023-04-03T23:13:52.667Z,69.50
2023-04-03T23:16:20.109Z,69.68
2023-04-03T23:18:50.241Z,69.88
2023-04-03T23:21:17.649Z,70.00
2023-04-03T23:23:47.335Z,70.67
2023-04-03T23:26:15.918Z,71.06
2023-04-03T23:28:43.104Z,71.32
2023-04-03T23:31:10.732Z,71.36
2023-04-03T23:33:38.889Z,71.30
2023-04-03T23:36:09.928Z,71.47
2023-04-03T23:38:37.805Z,71.69
2023-04-03T23:41:05.041Z,72.46
2023-04-03T23:43:32.388Z,72.54
2023-04-03T23:46:00.035Z,72.76
2023-04-03T23:48:33.414Z,73.31
2023-04-03T23:51:00.777Z,73.47
2023-04-03T23:53:28.903Z,73.82
2023-04-03T23:55:56.388Z,74.22
2023-04-03T23:58:26.083Z,74.45
